createdAt,value
2018-03-14T00:00:45.834Z,6.20
2018-03-14T00:03:18.642Z,6.20
2018-03-14T00:05:47.740Z,6.20
2018-03-14T00:08:15.997Z,6.20
2018-03-14T00:10:44.456Z,6.20
2018-03-14T00:13:14.226Z,6.20
2018-03-14T00:15:43.300Z,6.20
2018-03-14T00:18:11.864Z,6.20
2018-03-14T00:20:41.814Z,6.20
2018-03-14T00:23:10.186Z,6.10
2018-03-14T00:25:38.690Z,6.20
2018-03-14T00:28:09.413Z,6.10
2018-03-14T00:30:37.873Z,6.10
2018-03-14T00:33:06.173Z,6.10
2018-03-14T00:35:35.534Z,6.10
2018-03-14T00:38:04.244Z,6.10
2018-03-14T00:40:34.410Z,6.10
2018-03-14T00:43:02.721Z,6.10
2018-03-14T00:45:31.968Z,6.00
2018-03-14T00:48:02.246Z,6.00
2018-03-14T00:50:30.914Z,6.10
2018-03-14T00:53:00.675Z,6.10
2018-03-14T00:55:29.847Z,6.00
2018-03-14T00:57:58.020Z,6.10
2018-03-14T01:00:30.542Z,6.10
2018-03-14T01:03:03.871Z,6.00
2018-03-14T01:05:33.940Z,6.00
2018-03-14T01:08:05.547Z,6.00
2018-03-14T01:10:34.566Z,6.00
2018-03-14T01:13:08.355Z,6.00
2018-03-14T01:15:40.533Z,6.10
2018-03-14T01:18:15.689Z,6.10
2018-03-14T01:20:46.586Z,6.10
2018-03-14T01:23:27.570Z,6.10
2018-03-14T01:26:03.000Z,6.10
2018-03-14T01:28:33.118Z,6.10
2018-03-14T01:31:03.326Z,6.10
2018-03-14T01:33:39.975Z,6.10
2018-03-14T01:36:11.165Z,6.10
2018-03-14T01:38:42.481Z,6.10
2018-03-14T01:41:16.129Z,6.10
2018-03-14T01:46:20.531Z,5.90
2018-03-14T01:51:30.840Z,5.90
2018-03-14T01:54:06.516Z,5.90
2018-03-14T01:56:39.143Z,5.90
2018-03-14T01:59:09.844Z,5.90
2018-03-14T02:01:39.937Z,5.90
2018-03-14T02:04:14.906Z,5.90
2018-03-14T02:06:44.061Z,6.00
2018-03-14T02:09:20.511Z,6.00
2018-03-14T02:11:48.767Z,5.90
2018-03-14T02:14:28.835Z,5.90
2018-03-14T02:16:58.911Z,5.90
2018-03-14T02:19:32.397Z,5.90
2018-03-14T02:22:03.287Z,5.90
2018-03-14T02:24:34.048Z,5.90
2018-03-14T02:29:36.238Z,5.90
2018-03-14T02:32:07.756Z,5.90
2018-03-14T02:34:39.276Z,5.90
2018-03-14T02:39:44.138Z,6.00
2018-03-14T02:42:13.605Z,6.00
2018-03-14T02:44:43.735Z,6.10
2018-03-14T02:49:53.219Z,6.00
2018-03-14T02:54:58.781Z,6.00
2018-03-14T02:57:28.428Z,6.00
2018-03-14T03:00:01.331Z,6.00
2018-03-14T03:02:39.274Z,6.00
2018-03-14T03:05:11.293Z,6.00
2018-03-14T03:07:42.430Z,6.00
2018-03-14T03:10:13.161Z,6.00
2018-03-14T03:12:48.370Z,6.00
2018-03-14T03:15:19.164Z,6.00
2018-03-14T03:17:49.550Z,6.10
2018-03-14T03:20:23.378Z,6.10
2018-03-14T03:22:53.432Z,6.00
2018-03-14T03:28:01.081Z,6.00
2018-03-14T03:30:30.874Z,6.00
2018-03-14T03:33:01.769Z,6.00
2018-03-14T03:38:11.913Z,6.00
2018-03-14T03:43:17.907Z,6.00
2018-03-14T03:45:53.926Z,6.00
2018-03-14T03:48:28.473Z,5.90
2018-03-14T03:51:00.680Z,5.90
2018-03-14T03:53:29.252Z,5.90
2018-03-14T03:55:59.538Z,5.90
2018-03-14T03:58:38.784Z,6.00
2018-03-14T04:01:09.816Z,5.90
2018-03-14T04:03:43.272Z,5.90
2018-03-14T04:06:12.209Z,5.90
2018-03-14T04:08:46.726Z,5.90
2018-03-14T04:11:17.112Z,5.90
2018-03-14T04:16:21.365Z,5.80
2018-03-14T04:18:53.747Z,5.90
2018-03-14T04:21:30.329Z,5.90
2018-03-14T04:23:59.385Z,5.80
2018-03-14T04:26:30.214Z,5.80
2018-03-14T04:28:59.359Z,5.80
2018-03-14T04:31:29.952Z,5.80
2018-03-14T04:34:06.060Z,5.70
2018-03-14T04:36:44.592Z,5.70
2018-03-14T04:39:12.753Z,5.80
2018-03-14T04:41:41.045Z,5.80
2018-03-14T04:44:10.140Z,5.70
2018-03-14T04:46:42.552Z,5.70
2018-03-14T04:49:19.310Z,5.70
2018-03-14T04:51:50.575Z,5.80
2018-03-14T04:54:18.827Z,5.80
2018-03-14T04:56:46.969Z,5.80
2018-03-14T05:02:40.833Z,5.60
2018-03-14T05:05:09.054Z,5.60
2018-03-14T05:07:37.973Z,5.50
2018-03-14T05:10:06.128Z,5.50
2018-03-14T05:12:40.497Z,5.50
2018-03-14T05:15:19.033Z,5.50
2018-03-14T05:17:47.185Z,5.60
2018-03-14T05:20:23.376Z,5.60
2018-03-14T05:22:58.644Z,5.60
2018-03-14T05:25:26.830Z,5.60
2018-03-14T05:27:55.497Z,5.60
2018-03-14T05:30:23.676Z,5.60
2018-03-14T05:32:52.636Z,5.60
2018-03-14T05:35:20.806Z,5.70
2018-03-14T05:37:50.141Z,5.80
2018-03-14T05:40:18.297Z,5.70
2018-03-14T05:42:51.401Z,5.80
2018-03-14T05:45:21.484Z,5.80
2018-03-14T05:47:49.939Z,5.80
2018-03-14T05:50:18.123Z,5.70
2018-03-14T05:52:46.302Z,5.50
2018-03-14T05:55:15.979Z,5.50
2018-03-14T05:57:46.627Z,5.50
2018-03-14T06:00:19.490Z,5.50
2018-03-14T06:02:47.745Z,5.50
2018-03-14T06:05:15.953Z,5.60
2018-03-14T06:07:44.115Z,5.60
2018-03-14T06:10:12.290Z,5.70
2018-03-14T06:12:40.473Z,5.60
2018-03-14T06:15:09.595Z,5.50
2018-03-14T06:17:37.743Z,5.50
2018-03-14T06:20:05.898Z,5.50
2018-03-14T06:22:35.138Z,5.50
2018-03-14T06:25:03.676Z,5.60
2018-03-14T06:27:31.989Z,5.60
2018-03-14T06:30:00.694Z,5.60
2018-03-14T06:32:29.436Z,5.70
2018-03-14T06:34:57.591Z,5.80
2018-03-14T06:37:25.746Z,5.90
2018-03-14T06:39:53.914Z,5.90
2018-03-14T06:42:22.470Z,6.00
2018-03-14T06:44:50.664Z,6.20
2018-03-14T06:47:18.832Z,6.20
2018-03-14T06:49:46.991Z,6.30
2018-03-14T06:52:15.204Z,6.30
2018-03-14T06:54:44.135Z,6.40
2018-03-14T06:57:12.306Z,6.30
2018-03-14T06:59:52.185Z,6.30
2018-03-14T07:02:28.210Z,6.40
2018-03-14T07:05:08.052Z,6.40
2018-03-14T07:07:36.930Z,6.50
2018-03-14T07:10:05.080Z,6.60
2018-03-14T07:12:33.379Z,6.60
2018-03-14T07:15:02.884Z,6.60
2018-03-14T07:17:31.810Z,6.50
2018-03-14T07:19:59.956Z,6.50
2018-03-14T07:22:28.262Z,6.60
2018-03-14T07:24:56.454Z,6.70
2018-03-14T07:27:24.601Z,6.90
2018-03-14T07:29:52.923Z,7.00
2018-03-14T07:32:21.226Z,7.10
2018-03-14T07:34:50.147Z,7.30
2018-03-14T07:37:18.295Z,7.30
2018-03-14T07:39:46.462Z,7.30
2018-03-14T07:42:15.392Z,7.40
2018-03-14T07:44:43.648Z,7.40
2018-03-14T07:47:12.408Z,7.40
2018-03-14T07:49:40.567Z,7.50
2018-03-14T07:52:08.741Z,7.60
2018-03-14T07:54:36.904Z,7.60
2018-03-14T07:57:05.074Z,7.60
2018-03-14T07:59:33.222Z,7.50
2018-03-14T08:02:01.402Z,7.40
2018-03-14T08:04:29.548Z,7.30
2018-03-14T08:06:58.521Z,7.00
2018-03-14T08:09:26.690Z,7.00
2018-03-14T08:11:55.175Z,6.80
2018-03-14T08:14:30.311Z,6.80
2018-03-14T08:16:58.514Z,6.60
2018-03-14T08:19:26.684Z,6.70
2018-03-14T08:21:55.597Z,7.00
2018-03-14T08:24:24.775Z,7.00
2018-03-14T08:26:53.685Z,6.90
2018-03-14T08:29:21.864Z,6.80
2018-03-14T08:31:50.025Z,7.00
2018-03-14T08:34:20.186Z,6.90
2018-03-14T08:36:48.331Z,6.80
2018-03-14T08:39:17.248Z,7.00
2018-03-14T08:41:46.117Z,7.00
2018-03-14T08:44:17.340Z,7.00
2018-03-14T08:46:45.483Z,6.90
2018-03-14T08:49:13.685Z,7.10
2018-03-14T08:51:41.857Z,7.50
2018-03-14T08:54:10.033Z,7.70
2018-03-14T08:56:38.179Z,8.00
2018-03-14T08:59:06.330Z,8.20
2018-03-14T09:01:34.475Z,8.40
2018-03-14T09:04:02.756Z,8.10
2018-03-14T09:06:31.733Z,7.70
2018-03-14T09:08:59.914Z,7.60
2018-03-14T09:11:28.069Z,7.70
2018-03-14T09:13:56.251Z,7.80
2018-03-14T09:16:24.420Z,7.90
2018-03-14T09:18:52.586Z,8.20
2018-03-14T09:21:21.519Z,7.90
2018-03-14T09:23:49.769Z,7.90
2018-03-14T09:26:17.933Z,7.80
2018-03-14T09:28:46.542Z,7.70
2018-03-14T09:31:14.680Z,7.90
2018-03-14T09:33:43.493Z,8.00
2018-03-14T09:36:11.647Z,8.30
2018-03-14T09:38:40.381Z,8.40
2018-03-14T09:41:08.541Z,8.40
2018-03-14T09:43:38.852Z,8.50
2018-03-14T09:46:07.409Z,8.50
2018-03-14T09:48:35.564Z,8.30
2018-03-14T09:51:03.709Z,8.50
2018-03-14T09:53:31.926Z,8.70
2018-03-14T09:56:00.088Z,8.50
2018-03-14T09:58:28.294Z,8.50
2018-03-14T10:00:56.439Z,8.60
2018-03-14T10:03:25.663Z,8.50
2018-03-14T10:05:53.855Z,8.30
2018-03-14T10:08:22.326Z,8.20
2018-03-14T10:10:50.491Z,8.00
2018-03-14T10:13:19.426Z,7.80
2018-03-14T10:15:47.581Z,7.80
2018-03-14T10:18:15.755Z,7.90
2018-03-14T10:20:43.894Z,8.00
2018-03-14T10:23:12.153Z,8.10
2018-03-14T10:25:40.401Z,8.00
2018-03-14T10:28:08.478Z,8.00
2018-03-14T10:30:36.623Z,7.90
2018-03-14T10:33:04.776Z,8.00
2018-03-14T10:35:32.953Z,7.90
2018-03-14T10:38:01.122Z,8.00
2018-03-14T10:40:29.294Z,8.00
2018-03-14T10:42:57.497Z,8.10
2018-03-14T10:45:25.653Z,8.20
2018-03-14T10:47:53.808Z,8.20
2018-03-14T10:50:22.025Z,8.30
2018-03-14T10:52:51.016Z,8.50
2018-03-14T10:55:19.167Z,8.60
2018-03-14T10:57:47.314Z,8.70
2018-03-14T11:00:21.047Z,8.70
2018-03-14T11:02:53.125Z,8.80
2018-03-14T11:05:22.011Z,8.80
2018-03-14T11:07:50.277Z,8.70
2018-03-14T11:10:18.421Z,8.60
2018-03-14T11:12:47.089Z,8.60
2018-03-14T11:15:15.263Z,8.50
2018-03-14T11:17:43.430Z,8.50
2018-03-14T11:20:11.590Z,8.40
2018-03-14T11:22:39.739Z,8.50
2018-03-14T11:25:08.564Z,8.60
2018-03-14T11:27:37.217Z,8.70
2018-03-14T11:30:06.113Z,8.90
2018-03-14T11:32:34.281Z,8.90
2018-03-14T11:35:02.512Z,9.00
2018-03-14T11:37:30.665Z,9.00
2018-03-14T11:39:58.817Z,9.00
2018-03-14T11:42:28.006Z,9.10
2018-03-14T11:44:56.180Z,9.00
2018-03-14T11:47:25.355Z,9.00
2018-03-14T11:49:53.508Z,9.10
2018-03-14T11:52:22.756Z,9.20
2018-03-14T11:54:51.237Z,9.40
2018-03-14T11:57:19.447Z,9.50
2018-03-14T11:59:47.575Z,9.70
2018-03-14T12:02:16.502Z,9.90
2018-03-14T12:04:44.652Z,9.90
2018-03-14T12:07:12.796Z,9.90
2018-03-14T12:09:41.741Z,10.20
2018-03-14T12:12:09.964Z,10.10
2018-03-14T12:14:38.133Z,10.30
2018-03-14T12:17:07.124Z,10.30
2018-03-14T12:19:35.935Z,10.30
2018-03-14T12:22:04.725Z,10.20
2018-03-14T12:24:32.888Z,10.10
2018-03-14T12:27:01.045Z,10.20
2018-03-14T12:29:29.224Z,10.00
2018-03-14T12:31:57.418Z,10.00
2018-03-14T12:34:25.586Z,9.90
2018-03-14T12:36:54.512Z,9.80
2018-03-14T12:39:22.657Z,9.80
2018-03-14T12:41:50.844Z,9.80
2018-03-14T12:44:20.060Z,9.90
2018-03-14T12:46:48.230Z,10.00
2018-03-14T12:49:16.384Z,10.10
2018-03-14T12:51:44.590Z,10.20
2018-03-14T12:54:13.376Z,10.20
2018-03-14T12:56:41.535Z,10.10
2018-03-14T12:59:09.692Z,10.20
2018-03-14T13:01:37.847Z,10.20
2018-03-14T13:04:06.865Z,10.50
2018-03-14T13:06:35.031Z,10.50
2018-03-14T13:09:03.224Z,10.60
2018-03-14T13:11:32.359Z,10.70
2018-03-14T13:14:04.249Z,10.50
2018-03-14T13:16:38.135Z,10.50
2018-03-14T13:19:06.308Z,10.40
2018-03-14T13:21:34.920Z,10.70
2018-03-14T13:24:08.670Z,10.80
2018-03-14T13:26:39.012Z,11.00
2018-03-14T13:29:07.127Z,11.00
2018-03-14T13:31:35.492Z,11.10
2018-03-14T13:34:03.806Z,11.10
2018-03-14T13:36:31.984Z,11.10
2018-03-14T13:39:00.141Z,11.00
2018-03-14T13:41:28.593Z,11.30
2018-03-14T13:43:58.549Z,12.00
2018-03-14T13:46:26.728Z,12.00
2018-03-14T13:48:54.882Z,12.40
2018-03-14T13:51:23.048Z,12.70
2018-03-14T13:53:51.215Z,13.10
2018-03-14T13:56:19.366Z,13.30
2018-03-14T13:58:47.533Z,13.50
2018-03-14T14:01:15.711Z,14.00
2018-03-14T14:03:43.961Z,16.20
2018-03-14T14:06:12.154Z,16.40
2018-03-14T14:08:40.330Z,17.70
2018-03-14T14:11:08.928Z,18.80
2018-03-14T14:13:37.658Z,19.70
2018-03-14T14:16:05.856Z,20.20
2018-03-14T14:18:34.044Z,20.80
2018-03-14T14:21:02.219Z,21.10
2018-03-14T14:23:30.394Z,21.60
2018-03-14T14:25:59.310Z,21.70
2018-03-14T14:28:27.499Z,21.60
2018-03-14T14:30:55.653Z,21.30
2018-03-14T14:33:24.975Z,21.50
2018-03-14T14:35:53.469Z,21.70
2018-03-14T14:38:22.092Z,21.20
2018-03-14T14:40:51.094Z,19.80
2018-03-14T14:43:19.421Z,18.80
2018-03-14T14:45:47.624Z,18.50
2018-03-14T14:48:15.778Z,18.80
2018-03-14T14:50:43.961Z,19.60
2018-03-14T14:53:12.340Z,20.40
2018-03-14T14:55:40.542Z,20.60
2018-03-14T14:58:08.710Z,21.00
2018-03-14T15:00:36.985Z,21.30
2018-03-14T15:03:05.209Z,21.60
2018-03-14T15:05:33.385Z,22.00
2018-03-14T15:08:03.041Z,21.90
2018-03-14T15:35:35.191Z,20.70
2018-03-14T15:38:03.430Z,20.70
2018-03-14T15:40:31.622Z,20.60
2018-03-14T15:43:00.810Z,20.60
2018-03-14T15:45:30.210Z,20.10
2018-03-14T15:47:59.413Z,18.80
2018-03-14T15:50:27.600Z,17.70
2018-03-14T15:52:58.303Z,16.60
2018-03-14T15:55:26.482Z,15.80
2018-03-14T15:57:54.660Z,14.90
2018-03-14T16:00:23.962Z,14.20
2018-03-14T16:02:52.129Z,13.40
2018-03-14T16:05:21.127Z,12.90
2018-03-14T16:07:50.622Z,12.60
2018-03-14T16:10:19.007Z,12.20
2018-03-14T16:12:48.422Z,11.80
2018-03-14T16:15:19.362Z,11.60
2018-03-14T16:17:49.889Z,11.40
2018-03-14T16:20:20.508Z,11.20
2018-03-14T16:22:48.804Z,11.10
2018-03-14T16:25:21.202Z,10.90
2018-03-14T16:27:49.923Z,10.80
2018-03-14T16:30:18.855Z,10.50
2018-03-14T16:32:47.714Z,10.50
2018-03-14T16:35:17.228Z,10.40
2018-03-14T16:37:47.412Z,10.30
2018-03-14T16:40:16.896Z,10.30
2018-03-14T16:42:48.445Z,10.30
2018-03-14T16:45:17.375Z,10.20
2018-03-14T16:47:45.539Z,10.10
2018-03-14T16:50:14.630Z,10.00
2018-03-14T16:52:45.696Z,9.90
2018-03-14T16:55:14.384Z,9.90
2018-03-14T16:57:46.093Z,9.80
2018-03-14T17:00:17.483Z,9.70
2018-03-14T17:02:49.716Z,9.60
2018-03-14T17:05:21.763Z,9.60
2018-03-14T17:07:51.226Z,9.50
2018-03-14T17:10:19.985Z,9.40
2018-03-14T17:12:50.548Z,9.40
2018-03-14T17:15:20.909Z,9.30
2018-03-14T17:17:49.058Z,9.20
2018-03-14T17:20:20.876Z,9.10
2018-03-14T17:22:51.606Z,9.10
2018-03-14T17:25:21.982Z,9.00
2018-03-14T17:27:50.521Z,8.90
2018-03-14T17:30:19.772Z,8.90
2018-03-14T17:32:48.302Z,8.80
2018-03-14T17:35:20.916Z,8.70
2018-03-14T17:37:49.908Z,8.60
2018-03-14T17:40:18.926Z,8.50
2018-03-14T17:42:56.696Z,8.40
2018-03-14T17:45:27.497Z,8.30
2018-03-14T17:47:59.422Z,8.20
2018-03-14T17:50:30.240Z,8.10
2018-03-14T17:53:08.152Z,8.00
2018-03-14T17:55:42.334Z,7.90
2018-03-14T17:58:12.044Z,7.90
2018-03-14T18:10:35.306Z,7.40
2018-03-14T18:13:17.784Z,7.40
2018-03-14T18:15:51.417Z,7.30
2018-03-14T18:18:20.153Z,7.20
2018-03-14T18:20:48.476Z,7.10
2018-03-14T18:23:17.638Z,7.00
2018-03-14T18:25:48.247Z,6.90
2018-03-14T18:28:16.902Z,6.90
2018-03-14T18:30:45.780Z,6.80
2018-03-14T18:33:14.110Z,6.40
2018-03-14T18:35:45.597Z,6.00
2018-03-14T18:38:15.395Z,5.80
2018-03-14T18:40:44.300Z,5.50
2018-03-14T18:43:15.585Z,5.40
2018-03-14T18:45:43.744Z,5.30
2018-03-14T18:48:13.908Z,5.30
2018-03-14T18:50:44.090Z,5.30
2018-03-14T18:53:17.677Z,5.20
2018-03-14T18:55:47.758Z,5.10
2018-03-14T18:58:16.953Z,4.90
2018-03-14T21:45:06.255Z,1.30
2018-03-14T21:47:39.147Z,1.20
2018-03-14T21:52:47.531Z,1.10
2018-03-14T21:55:23.769Z,1.10
2018-03-14T21:57:54.690Z,1.00
2018-03-14T22:00:28.851Z,1.00
2018-03-14T22:05:38.122Z,1.20
2018-03-14T22:08:11.329Z,1.10
2018-03-14T22:10:49.778Z,1.10
2018-03-14T22:13:26.309Z,1.10
2018-03-14T22:18:40.107Z,1.20
2018-03-14T22:23:54.178Z,1.00
2018-03-14T22:29:03.887Z,0.90
2018-03-14T22:34:23.823Z,0.80
2018-03-14T22:36:56.701Z,0.70
2018-03-14T22:42:12.153Z,0.60
2018-03-14T22:44:49.123Z,0.70
2018-03-14T22:47:24.846Z,0.70
2018-03-14T22:50:04.171Z,0.60
2018-03-14T22:52:34.893Z,0.70
2018-03-14T22:57:49.523Z,0.70
2018-03-14T23:00:27.064Z,0.50
2018-03-14T23:16:17.415Z,0.40
2018-03-14T23:18:52.687Z,0.40
2018-03-14T23:21:25.500Z,0.30
2018-03-14T23:23:55.271Z,0.30
2018-03-14T23:34:13.069Z,0.10
2018-03-14T23:47:22.397Z,0.10
2018-03-14T23:49:53.718Z,0.20
